Time;durP1;ratioP1;P1;durP2;ratioP2;P2;SDS_P1;SDS_P2;PMS_P1;PMS_P2;Temp;Humidity;BMP_temperature;BMP_pressure;BME280_temperature;BME280_humidity;BME280_pressure;Samples;Min_cycle;Max_cycle;Signal;HPM_P1;HPM_P2
2023/06/21 00:00:01;;;;;;;13.80;9.00;;;21.80;63.70;;;;;;4885671;29;20057;-92
2023/06/21 00:02:31;;;;;;;13.55;8.52;;;21.80;63.80;;;;;;4886327;29;20448;-92
2023/06/21 00:04:58;;;;;;;12.43;8.50;;;21.90;63.30;;;;;;4870098;29;20108;-92
2023/06/21 00:07:27;;;;;;;13.82;8.63;;;21.90;63.40;;;;;;4885287;29;20041;-92
2023/06/21 00:09:55;;;;;;;12.75;8.20;;;22.00;63.10;;;;;;4870064;29;20048;-93
2023/06/21 00:12:25;;;;;;;13.37;9.00;;;22.00;63.10;;;;;;4869825;29;20456;-93
2023/06/21 00:14:52;;;;;;;12.95;8.52;;;22.00;63.20;;;;;;4870211;29;20044;-93
2023/06/21 00:17:19;;;;;;;12.57;8.95;;;22.00;62.90;;;;;;4869881;29;20044;-92
2023/06/21 00:19:47;;;;;;;13.13;8.50;;;22.10;63.00;;;;;;4869723;29;20048;-93
2023/06/21 00:22:20;;;;;;;14.02;9.02;;;22.10;62.70;;;;;;4869682;29;20093;-92
2023/06/21 00:24:50;;;;;;;13.60;8.97;;;22.20;62.80;;;;;;4869729;29;20185;-92
2023/06/21 00:27:18;;;;;;;13.05;8.65;;;22.20;62.50;;;;;;4869505;29;20048;-92
2023/06/21 00:29:45;;;;;;;13.18;8.52;;;22.30;62.80;;;;;;4869967;29;20052;-92
2023/06/21 00:32:12;;;;;;;12.77;8.48;;;22.20;62.70;;;;;;4869810;29;20147;-92
2023/06/21 00:34:40;;;;;;;13.65;8.50;;;22.30;62.20;;;;;;4884736;29;20052;-92
2023/06/21 00:37:07;;;;;;;13.73;9.17;;;22.30;61.90;;;;;;4869310;29;20049;-93
2023/06/21 00:39:34;;;;;;;12.13;8.45;;;22.30;62.00;;;;;;4884915;29;20127;-92
2023/06/21 00:42:01;;;;;;;12.95;8.77;;;22.30;62.10;;;;;;4869897;29;20052;-93
2023/06/21 00:44:31;;;;;;;12.23;8.52;;;22.30;61.90;;;;;;4869743;29;20044;-93
2023/06/21 00:46:59;;;;;;;13.27;8.27;;;22.20;62.30;;;;;;4869475;29;20073;-93
2023/06/21 00:49:27;;;;;;;12.57;8.50;;;22.20;61.90;;;;;;4869489;29;20055;-93
2023/06/21 00:51:57;;;;;;;13.88;8.68;;;22.20;62.10;;;;;;4869610;29;20048;-92
2023/06/21 00:54:29;;;;;;;12.02;7.93;;;22.10;62.00;;;;;;4869753;29;20112;-93
2023/06/21 00:56:56;;;;;;;18.15;8.80;;;22.20;61.90;;;;;;4869503;29;20045;-93
2023/06/21 00:59:27;;;;;;;13.50;8.00;;;22.20;61.70;;;;;;4869234;29;20044;-93
2023/06/21 01:01:56;;;;;;;12.83;8.07;;;22.20;61.80;;;;;;4869390;29;20051;-92
2023/06/21 01:04:31;;;;;;;14.32;8.30;;;22.20;61.70;;;;;;4869294;29;20044;-93
2023/06/21 01:07:23;;;;;;;16.17;8.60;;;22.10;61.80;;;;;;4868575;29;20054;-92
2023/06/21 01:10:08;;;;;;;12.00;7.72;;;22.10;61.80;;;;;;4869192;29;20067;-93
2023/06/21 01:13:16;;;;;;;12.68;7.90;;;22.10;62.20;;;;;;4869050;29;20045;-92
2023/06/21 01:15:47;;;;;;;11.47;8.27;;;22.00;62.30;;;;;;4868993;29;20081;-93
2023/06/21 01:18:15;;;;;;;13.27;8.60;;;21.90;62.90;;;;;;4868813;29;20060;-92
2023/06/21 01:20:48;;;;;;;12.38;8.75;;;21.80;63.20;;;;;;4868746;29;20495;-92
2023/06/21 01:23:44;;;;;;;14.55;9.15;;;21.70;63.10;;;;;;4868256;29;20152;-92
2023/06/21 01:26:38;;;;;;;12.90;8.80;;;21.60;63.50;;;;;;4868174;29;20396;-91
2023/06/21 01:29:33;;;;;;;13.47;8.63;;;21.60;64.10;;;;;;4868495;29;20040;-92
2023/06/21 01:32:02;;;;;;;13.82;8.93;;;21.50;64.30;;;;;;4868644;29;20387;-92
2023/06/21 01:34:32;;;;;;;14.00;9.10;;;21.50;64.40;;;;;;4870787;29;20041;-92
2023/06/21 01:36:59;;;;;;;13.88;8.85;;;21.40;64.40;;;;;;4868626;29;20100;-93
2023/06/21 01:39:27;;;;;;;13.32;8.48;;;21.50;64.40;;;;;;4868375;29;20048;-92
2023/06/21 01:41:55;;;;;;;13.23;8.50;;;21.50;64.10;;;;;;4868450;29;20594;-92
2023/06/21 01:44:22;;;;;;;11.95;7.95;;;21.50;64.40;;;;;;4868392;29;20049;-92
2023/06/21 01:46:53;;;;;;;12.70;8.35;;;21.50;64.20;;;;;;4868147;29;20558;-91
2023/06/21 01:49:22;;;;;;;15.40;8.90;;;21.50;64.30;;;;;;4882727;29;20515;-91
2023/06/21 01:51:50;;;;;;;13.82;8.40;;;21.50;64.30;;;;;;4867777;29;20056;-92
2023/06/21 01:54:20;;;;;;;14.47;8.57;;;21.50;64.30;;;;;;4868073;29;20567;-92
2023/06/21 01:56:50;;;;;;;15.45;8.57;;;21.30;64.60;;;;;;4868157;29;20049;-92
2023/06/21 01:59:18;;;;;;;15.70;9.55;;;21.30;64.80;;;;;;4867807;29;20056;-92
2023/06/21 02:01:50;;;;;;;14.30;8.73;;;21.30;64.70;;;;;;4867769;29;20066;-91
2023/06/21 02:04:18;;;;;;;13.75;8.88;;;21.30;64.90;;;;;;4867851;29;20495;-92
2023/06/21 02:06:48;;;;;;;13.47;9.13;;;21.20;65.00;;;;;;4867600;29;20077;-92
2023/06/21 02:09:19;;;;;;;15.18;8.57;;;21.20;65.20;;;;;;4868135;29;20052;-92
2023/06/21 02:11:47;;;;;;;18.58;9.80;;;21.20;65.40;;;;;;4868013;29;20044;-92
2023/06/21 02:14:15;;;;;;;15.45;9.27;;;21.10;65.20;;;;;;4868415;29;20044;-93
2023/06/21 02:16:42;;;;;;;13.95;9.13;;;21.10;65.40;;;;;;4883333;29;20045;-91
2023/06/21 02:19:10;;;;;;;13.57;8.97;;;21.10;65.70;;;;;;4868460;29;20083;-92
2023/06/21 02:21:38;;;;;;;14.38;8.63;;;21.10;65.80;;;;;;4883375;29;20065;-92
2023/06/21 02:24:06;;;;;;;13.55;9.18;;;21.10;65.80;;;;;;4882871;29;20056;-92
2023/06/21 02:26:36;;;;;;;13.13;8.85;;;21.10;65.80;;;;;;4868597;29;20049;-92
2023/06/21 02:29:04;;;;;;;14.35;9.30;;;21.10;65.90;;;;;;4883147;29;20065;-93
2023/06/21 02:31:34;;;;;;;16.30;9.23;;;21.00;66.00;;;;;;4867479;29;20041;-91
2023/06/21 02:34:04;;;;;;;13.75;9.00;;;21.00;66.20;;;;;;4867571;29;20049;-92
2023/06/21 02:36:32;;;;;;;14.38;9.65;;;20.90;66.60;;;;;;4867807;29;20052;-92
2023/06/21 02:38:59;;;;;;;14.18;9.27;;;20.80;66.90;;;;;;4867267;29;20059;-91
2023/06/21 02:41:29;;;;;;;14.88;9.38;;;20.70;67.10;;;;;;4883008;29;20048;-92
2023/06/21 02:43:56;;;;;;;14.13;9.07;;;20.60;67.30;;;;;;4867262;29;20052;-92
2023/06/21 02:46:23;;;;;;;16.25;9.85;;;20.60;67.50;;;;;;4883229;29;20049;-93
2023/06/21 02:48:51;;;;;;;14.77;9.85;;;20.60;67.50;;;;;;4882856;29;20143;-92
2023/06/21 02:51:20;;;;;;;14.38;9.57;;;20.60;67.60;;;;;;4867841;29;20184;-92
2023/06/21 02:53:48;;;;;;;14.02;9.77;;;20.60;67.60;;;;;;4867722;29;20052;-93
2023/06/21 02:56:15;;;;;;;15.40;9.63;;;20.50;67.70;;;;;;4867604;29;20047;-92
2023/06/21 02:58:42;;;;;;;15.20;9.90;;;20.60;67.70;;;;;;4868000;29;20135;-91
2023/06/21 03:01:09;;;;;;;14.48;9.50;;;20.50;67.80;;;;;;4884837;29;20044;-90
2023/06/21 03:03:40;;;;;;;16.35;9.63;;;20.50;67.90;;;;;;4886529;29;20578;-91
2023/06/21 03:06:08;;;;;;;16.90;10.13;;;20.50;67.90;;;;;;4871252;29;20140;-92
2023/06/21 03:08:36;;;;;;;14.77;8.97;;;20.60;68.00;;;;;;4871221;29;20612;-92
2023/06/21 03:11:08;;;;;;;15.27;9.45;;;20.50;68.10;;;;;;4871151;29;20049;-92
2023/06/21 03:13:37;;;;;;;16.63;9.77;;;20.50;68.10;;;;;;4871329;29;20040;-91
2023/06/21 03:16:05;;;;;;;15.30;10.05;;;20.50;68.30;;;;;;4886703;29;20041;-91
2023/06/21 03:18:32;;;;;;;14.00;9.32;;;20.50;68.30;;;;;;4886205;29;20048;-92
2023/06/21 03:21:02;;;;;;;16.97;10.23;;;20.40;68.50;;;;;;4870966;29;20155;-91
2023/06/21 03:23:30;;;;;;;15.13;9.60;;;20.40;68.50;;;;;;4870385;29;20108;-92
2023/06/21 03:25:58;;;;;;;15.73;9.90;;;20.40;68.60;;;;;;4870848;29;20052;-91
2023/06/21 03:28:25;;;;;;;14.98;9.88;;;20.40;68.70;;;;;;4885987;29;20067;-92
2023/06/21 03:30:52;;;;;;;14.38;9.50;;;20.40;68.60;;;;;;4886038;29;20048;-91
2023/06/21 03:33:20;;;;;;;14.43;9.43;;;20.50;68.40;;;;;;4871014;29;20450;-92
2023/06/21 03:35:47;;;;;;;15.30;10.07;;;20.60;68.30;;;;;;4885887;29;20180;-92
2023/06/21 03:38:14;;;;;;;16.13;10.30;;;20.60;68.20;;;;;;4885444;29;20051;-92
2023/06/21 03:40:42;;;;;;;15.23;9.80;;;20.60;68.40;;;;;;4870324;29;20048;-92
2023/06/21 03:43:09;;;;;;;16.20;9.57;;;20.60;68.00;;;;;;4870448;29;20057;-91
2023/06/21 03:45:38;;;;;;;14.70;9.10;;;20.60;68.00;;;;;;4870255;29;20048;-92
2023/06/21 03:48:07;;;;;;;14.23;9.70;;;20.70;67.90;;;;;;4870209;29;20037;-92
2023/06/21 03:50:37;;;;;;;16.30;9.98;;;20.80;68.00;;;;;;4870950;29;20052;-92
2023/06/21 03:53:04;;;;;;;13.35;9.85;;;20.90;67.70;;;;;;4885807;29;20048;-92
2023/06/21 03:55:31;;;;;;;15.88;9.75;;;20.90;67.70;;;;;;4885599;29;20073;-92
2023/06/21 03:57:59;;;;;;;14.13;9.70;;;21.00;67.50;;;;;;4885212;29;20048;-90
2023/06/21 04:00:26;;;;;;;14.80;9.80;;;21.00;67.50;;;;;;4885914;29;20161;-91
2023/06/21 04:02:54;;;;;;;15.07;9.77;;;21.00;67.50;;;;;;4870576;29;20049;-91
2023/06/21 04:05:21;;;;;;;15.50;9.48;;;21.00;67.40;;;;;;4870467;29;20515;-92
2023/06/21 04:07:48;;;;;;;14.70;9.73;;;21.00;67.30;;;;;;4870096;29;20049;-93
2023/06/21 04:10:16;;;;;;;14.17;9.53;;;21.10;67.30;;;;;;4870131;29;20499;-94
2023/06/21 04:12:43;;;;;;;16.90;9.98;;;21.10;67.40;;;;;;4884853;29;20049;-94
2023/06/21 04:15:11;;;;;;;14.63;9.55;;;21.10;67.10;;;;;;4885366;29;20055;-94
2023/06/21 04:17:39;;;;;;;14.75;9.27;;;21.20;67.00;;;;;;4869946;29;20140;-94
2023/06/21 04:20:14;;;;;;;16.90;10.55;;;21.20;67.20;;;;;;4870088;29;20088;-95
2023/06/21 04:22:45;;;;;;;13.97;9.50;;;21.30;67.30;;;;;;4870217;29;20102;-92
2023/06/21 04:25:13;;;;;;;15.25;9.38;;;21.40;67.00;;;;;;4870153;29;20452;-91
2023/06/21 04:27:40;;;;;;;14.70;9.48;;;21.40;67.00;;;;;;4885200;29;20101;-92
2023/06/21 04:30:11;;;;;;;13.95;8.85;;;21.50;67.10;;;;;;4884410;29;20123;-91
2023/06/21 04:32:44;;;;;;;13.98;9.00;;;21.60;66.60;;;;;;4869138;29;20506;-92
2023/06/21 04:35:14;;;;;;;14.83;9.53;;;21.70;66.80;;;;;;4869843;29;20088;-91
2023/06/21 04:37:45;;;;;;;23.08;8.95;;;21.80;66.10;;;;;;4869564;29;20139;-91
2023/06/21 04:40:12;;;;;;;19.48;9.10;;;22.00;66.20;;;;;;4869516;29;20049;-92
2023/06/21 04:43:01;;;;;;;13.52;9.02;;;22.00;65.60;;;;;;4872029;29;20155;-91
2023/06/21 04:45:30;;;;;;;13.65;9.27;;;22.10;65.40;;;;;;4869838;29;20082;-92
2023/06/21 04:47:57;;;;;;;13.87;8.90;;;22.20;65.00;;;;;;4884868;29;20499;-92
2023/06/21 04:50:26;;;;;;;15.05;9.10;;;22.40;64.80;;;;;;4869526;29;20410;-92
2023/06/21 04:52:57;;;;;;;13.98;8.95;;;22.60;64.80;;;;;;4869413;29;20086;-92
2023/06/21 04:55:26;;;;;;;12.85;9.30;;;22.70;64.20;;;;;;4869310;29;20052;-92
2023/06/21 04:57:55;;;;;;;13.88;9.07;;;22.80;63.80;;;;;;4869210;29;20072;-92
2023/06/21 05:00:23;;;;;;;14.73;9.13;;;22.90;63.60;;;;;;4869525;29;20056;-92
2023/06/21 05:02:50;;;;;;;13.50;8.82;;;23.00;63.80;;;;;;4884418;29;20053;-92
2023/06/21 05:05:17;;;;;;;15.50;9.55;;;23.10;63.40;;;;;;4884474;29;20049;-92
2023/06/21 05:07:44;;;;;;;13.38;9.35;;;23.10;63.60;;;;;;4869079;29;20048;-92
2023/06/21 05:10:12;;;;;;;17.92;9.65;;;23.30;63.30;;;;;;4869714;29;20075;-91
2023/06/21 05:12:39;;;;;;;15.57;8.13;;;23.40;63.20;;;;;;4869078;29;20100;-92
2023/06/21 05:15:07;;;;;;;13.93;9.02;;;23.50;63.10;;;;;;4884801;29;20503;-92
2023/06/21 05:17:35;;;;;;;15.27;9.20;;;23.60;62.50;;;;;;4868594;29;20045;-92
2023/06/21 05:20:04;;;;;;;11.98;8.27;;;23.70;62.60;;;;;;4869028;29;20063;-92
2023/06/21 05:22:31;;;;;;;13.38;8.68;;;23.90;62.30;;;;;;4868928;29;20040;-92
2023/06/21 05:25:01;;;;;;;11.87;8.67;;;23.90;62.00;;;;;;4868069;29;20075;-92
2023/06/21 05:27:29;;;;;;;14.27;9.45;;;24.00;62.00;;;;;;4868602;29;20048;-92
2023/06/21 05:29:57;;;;;;;13.25;8.98;;;24.10;61.60;;;;;;4884179;29;20056;-92
2023/06/21 05:32:25;;;;;;;16.27;8.77;;;24.30;61.70;;;;;;4884035;29;20052;-92
2023/06/21 05:34:53;;;;;;;14.50;8.60;;;24.40;62.30;;;;;;4868912;29;20048;-92
2023/06/21 05:37:22;;;;;;;15.57;9.20;;;24.50;62.20;;;;;;4869093;29;20143;-92
2023/06/21 05:39:50;;;;;;;14.18;8.48;;;24.60;61.30;;;;;;4868622;29;20061;-92
2023/06/21 05:42:18;;;;;;;12.20;9.20;;;24.80;60.90;;;;;;4868805;29;20052;-92
2023/06/21 05:44:45;;;;;;;60.88;11.38;;;24.90;60.40;;;;;;4883980;29;20486;-92
2023/06/21 05:47:13;;;;;;;16.15;8.82;;;25.00;59.90;;;;;;4868403;29;20044;-92
2023/06/21 05:49:41;;;;;;;13.27;9.10;;;24.90;59.60;;;;;;4868173;29;20053;-92
2023/06/21 05:52:08;;;;;;;63.83;11.15;;;24.90;59.50;;;;;;4884264;29;20455;-92
2023/06/21 05:54:37;;;;;;;17.75;9.43;;;24.90;59.90;;;;;;4883694;29;20049;-92
2023/06/21 05:57:05;;;;;;;17.10;9.20;;;24.90;59.90;;;;;;4868357;29;20049;-92
2023/06/21 05:59:32;;;;;;;15.00;8.55;;;24.80;60.50;;;;;;4868480;29;20048;-92
2023/06/21 06:01:59;;;;;;;20.10;8.73;;;24.90;60.80;;;;;;4883858;29;20060;-92
2023/06/21 06:04:26;;;;;;;13.88;8.80;;;25.00;60.30;;;;;;4884056;29;20056;-92
2023/06/21 06:06:53;;;;;;;13.10;8.25;;;25.10;60.20;;;;;;4883433;29;20526;-92
2023/06/21 06:09:21;;;;;;;12.73;8.00;;;25.20;59.70;;;;;;4883460;29;20049;-92
2023/06/21 06:11:49;;;;;;;16.15;7.88;;;25.30;59.50;;;;;;4868186;29;20047;-92
2023/06/21 06:14:17;;;;;;;12.77;7.87;;;25.50;59.30;;;;;;4868263;29;20053;-92
2023/06/21 06:16:44;;;;;;;12.73;7.80;;;25.70;58.60;;;;;;4883376;29;20048;-92
2023/06/21 06:19:11;;;;;;;12.73;7.50;;;25.90;58.00;;;;;;4868389;29;20052;-92
2023/06/21 06:21:38;;;;;;;11.70;7.85;;;26.00;56.30;;;;;;4867845;29;20049;-92
2023/06/21 06:24:05;;;;;;;11.52;7.55;;;26.00;56.30;;;;;;4883204;29;20116;-93
2023/06/21 06:26:33;;;;;;;13.13;7.83;;;26.10;55.90;;;;;;4883526;29;20052;-92
2023/06/21 06:29:00;;;;;;;11.07;7.55;;;26.30;55.00;;;;;;4867527;29;20049;-92
2023/06/21 06:31:29;;;;;;;12.30;7.72;;;26.40;55.50;;;;;;4868013;29;20081;-93
2023/06/21 06:33:57;;;;;;;11.32;8.05;;;26.40;54.80;;;;;;4868398;29;20056;-92
2023/06/21 06:36:24;;;;;;;11.10;7.00;;;26.50;54.60;;;;;;4870440;29;20052;-93
2023/06/21 06:38:52;;;;;;;11.50;7.80;;;26.60;54.10;;;;;;4871941;29;20048;-93
2023/06/21 06:41:19;;;;;;;10.80;7.07;;;26.80;53.20;;;;;;4871576;29;20112;-92
2023/06/21 06:43:47;;;;;;;12.30;7.65;;;27.10;53.50;;;;;;4871873;29;20068;-92
2023/06/21 06:46:14;;;;;;;11.90;7.40;;;27.30;53.10;;;;;;4871396;29;20048;-92
2023/06/21 06:48:41;;;;;;;16.48;7.38;;;27.60;52.80;;;;;;4871325;29;20053;-93
2023/06/21 06:51:09;;;;;;;12.00;7.10;;;27.80;52.60;;;;;;4887000;29;20551;-93
2023/06/21 06:53:36;;;;;;;12.50;7.32;;;27.90;53.00;;;;;;4871803;29;20049;-93
2023/06/21 06:56:03;;;;;;;13.10;7.93;;;28.10;53.20;;;;;;4871677;29;20048;-93
2023/06/21 06:58:35;;;;;;;13.27;7.32;;;28.40;51.70;;;;;;4886892;29;20053;-92
2023/06/21 07:01:05;;;;;;;121.03;12.85;;;28.30;51.00;;;;;;4871218;29;20045;-93
2023/06/21 07:03:33;;;;;;;14.30;7.13;;;28.20;51.10;;;;;;4871484;29;20056;-93
2023/06/21 07:06:00;;;;;;;12.00;7.47;;;28.10;52.10;;;;;;4871444;29;20053;-93
2023/06/21 07:08:28;;;;;;;10.85;7.50;;;28.00;51.70;;;;;;4886607;29;20064;-93
2023/06/21 07:10:55;;;;;;;14.60;7.65;;;27.90;51.40;;;;;;4870998;29;20559;-93
2023/06/21 07:13:23;;;;;;;16.38;7.53;;;27.80;51.60;;;;;;4871153;29;20070;-92
2023/06/21 07:15:50;;;;;;;11.97;7.37;;;27.80;51.80;;;;;;4870963;29;20067;-93
2023/06/21 07:18:17;;;;;;;19.60;7.72;;;27.80;52.30;;;;;;4870947;29;20068;-93
2023/06/21 07:20:45;;;;;;;13.35;7.07;;;27.90;52.00;;;;;;4886289;29;20092;-93
2023/06/21 07:23:12;;;;;;;12.05;7.30;;;28.00;52.60;;;;;;4870713;29;20536;-93
2023/06/21 07:25:39;;;;;;;12.52;7.47;;;28.00;52.70;;;;;;4870861;29;20076;-93
2023/06/21 07:28:07;;;;;;;12.53;7.17;;;27.90;52.00;;;;;;4886336;29;20396;-93
2023/06/21 07:30:34;;;;;;;11.75;7.43;;;27.80;52.10;;;;;;4870687;29;20045;-92
2023/06/21 07:33:08;;;;;;;11.80;7.05;;;27.90;52.30;;;;;;4886089;29;20100;-93
2023/06/21 07:35:35;;;;;;;12.30;7.05;;;27.90;52.40;;;;;;4870631;29;20407;-93
2023/06/21 07:38:06;;;;;;;14.40;6.78;;;27.80;51.80;;;;;;4886438;29;20040;-93
2023/06/21 07:40:34;;;;;;;13.67;7.37;;;27.90;53.20;;;;;;4870851;29;20049;-93
2023/06/21 07:43:01;;;;;;;12.23;7.47;;;27.90;52.20;;;;;;4870398;29;20090;-93
2023/06/21 07:45:28;;;;;;;12.65;7.47;;;27.90;52.10;;;;;;4885506;29;20048;-93
2023/06/21 07:47:56;;;;;;;13.52;7.43;;;27.70;52.90;;;;;;4884332;29;20048;-93
2023/06/21 07:50:26;;;;;;;11.40;7.22;;;27.70;53.30;;;;;;4885747;29;20460;-93
2023/06/21 07:52:53;;;;;;;10.50;6.97;;;27.70;53.80;;;;;;4870474;29;20510;-93
2023/06/21 07:55:20;;;;;;;11.07;7.30;;;27.70;52.50;;;;;;4870332;29;20080;-93
2023/06/21 07:57:48;;;;;;;10.80;7.07;;;27.70;52.40;;;;;;4870541;29;20045;-93
2023/06/21 08:00:18;;;;;;;14.82;7.68;;;27.70;52.90;;;;;;4885925;29;20079;-93
2023/06/21 08:02:45;;;;;;;15.52;7.13;;;27.80;54.10;;;;;;4869962;29;20059;-93
2023/06/21 08:05:13;;;;;;;14.23;7.30;;;27.90;53.30;;;;;;4885594;29;20105;-93
2023/06/21 08:07:41;;;;;;;12.18;7.00;;;28.00;53.10;;;;;;4870080;29;20064;-94
2023/06/21 08:10:09;;;;;;;11.35;7.93;;;28.10;53.20;;;;;;4869703;29;20040;-93
2023/06/21 08:12:36;;;;;;;10.73;7.47;;;28.40;53.80;;;;;;4870066;29;20055;-93
2023/06/21 08:15:05;;;;;;;11.57;7.10;;;28.60;53.30;;;;;;4869954;29;20502;-93
2023/06/21 08:17:32;;;;;;;12.60;7.00;;;28.60;52.50;;;;;;4870048;29;20049;-93
2023/06/21 08:20:00;;;;;;;12.45;7.35;;;28.60;52.20;;;;;;4885185;29;20510;-93
2023/06/21 08:22:27;;;;;;;11.18;7.30;;;28.60;51.30;;;;;;4869827;29;20052;-93
2023/06/21 08:24:56;;;;;;;12.57;7.38;;;28.60;52.40;;;;;;4885407;29;20059;-93
2023/06/21 08:27:23;;;;;;;68.10;10.25;;;28.50;51.90;;;;;;4869783;29;20406;-93
2023/06/21 08:29:51;;;;;;;14.70;7.80;;;28.60;53.40;;;;;;4870144;29;20108;-93
2023/06/21 08:32:19;;;;;;;11.32;7.95;;;28.60;53.30;;;;;;4869839;29;20048;-93
2023/06/21 08:34:47;;;;;;;13.93;7.93;;;28.60;52.80;;;;;;4869908;29;20049;-93
2023/06/21 08:37:14;;;;;;;11.10;7.60;;;28.80;52.00;;;;;;4884397;29;20048;-93
2023/06/21 08:39:42;;;;;;;11.90;8.25;;;29.10;51.70;;;;;;4884344;29;20507;-93
2023/06/21 08:42:09;;;;;;;13.77;7.43;;;29.50;52.90;;;;;;4868915;29;20414;-92
2023/06/21 08:44:36;;;;;;;11.15;7.20;;;29.70;51.60;;;;;;4868985;29;20410;-93
2023/06/21 08:47:05;;;;;;;11.85;8.00;;;29.80;49.30;;;;;;4869025;29;20052;-93
2023/06/21 08:49:37;;;;;;;21.60;8.57;;;29.70;49.90;;;;;;4869040;29;20040;-93
2023/06/21 08:52:11;;;;;;;12.27;7.70;;;29.80;51.10;;;;;;4869030;29;20044;-93
2023/06/21 08:54:44;;;;;;;16.00;8.40;;;29.90;50.80;;;;;;4869724;29;20072;-93
2023/06/21 08:57:20;;;;;;;13.32;7.90;;;29.80;50.10;;;;;;4869569;29;20048;-93
2023/06/21 08:59:55;;;;;;;13.25;8.35;;;29.60;52.10;;;;;;4869069;29;20052;-93
2023/06/21 09:02:42;;;;;;;11.57;8.00;;;29.50;52.50;;;;;;4884545;29;20526;-93
2023/06/21 09:05:20;;;;;;;11.68;7.50;;;29.30;52.10;;;;;;4869115;29;20079;-92
2023/06/21 09:07:47;;;;;;;11.53;7.90;;;29.20;51.90;;;;;;4869303;29;20088;-92
2023/06/21 09:10:16;;;;;;;12.50;8.20;;;29.10;52.10;;;;;;4868785;29;20558;-92
2023/06/21 09:12:45;;;;;;;13.95;8.18;;;29.00;52.20;;;;;;4884338;29;20051;-93
2023/06/21 09:15:15;;;;;;;12.98;8.25;;;28.90;53.50;;;;;;4869348;29;20049;-92
2023/06/21 09:17:44;;;;;;;16.30;8.65;;;28.90;53.20;;;;;;4869520;29;20439;-93
2023/06/21 09:20:15;;;;;;;18.63;8.27;;;28.80;53.60;;;;;;4869046;29;20063;-93
2023/06/21 09:22:44;;;;;;;14.43;8.90;;;28.80;54.60;;;;;;4868494;29;20204;-93
2023/06/21 09:25:12;;;;;;;31.55;9.50;;;28.80;55.10;;;;;;4884125;29;20056;-93
2023/06/21 09:27:40;;;;;;;14.55;8.40;;;28.70;54.90;;;;;;4868680;29;20198;-93
2023/06/21 09:30:08;;;;;;;11.88;8.25;;;28.60;54.70;;;;;;4868635;29;20419;-92
2023/06/21 09:32:56;;;;;;;12.13;8.03;;;28.60;56.50;;;;;;4871454;29;20101;-93
2023/06/21 09:35:24;;;;;;;15.38;9.05;;;28.50;57.50;;;;;;4868646;29;20143;-92
2023/06/21 09:37:51;;;;;;;13.80;8.57;;;28.30;55.40;;;;;;4868368;29;20422;-92
2023/06/21 09:40:18;;;;;;;12.88;8.77;;;28.30;57.20;;;;;;4883513;29;20116;-92
2023/06/21 09:42:46;;;;;;;15.05;8.65;;;28.30;58.90;;;;;;4868409;29;20139;-92
2023/06/21 09:45:19;;;;;;;15.87;8.53;;;28.20;59.10;;;;;;4868414;29;20080;-92
2023/06/21 09:47:47;;;;;;;15.27;9.30;;;28.10;59.30;;;;;;4868446;29;20515;-92
2023/06/21 09:50:14;;;;;;;15.98;8.80;;;28.20;60.10;;;;;;4868268;29;20059;-92
2023/06/21 09:52:45;;;;;;;13.70;8.77;;;28.10;58.80;;;;;;4868095;29;20507;-92
2023/06/21 09:55:13;;;;;;;14.88;8.32;;;28.10;56.50;;;;;;4867767;29;20083;-92
2023/06/21 09:57:40;;;;;;;12.87;9.50;;;28.10;56.70;;;;;;4867791;29;20048;-93
2023/06/21 10:00:08;;;;;;;13.88;9.80;;;28.10;57.10;;;;;;4867835;29;20062;-93
2023/06/21 10:02:39;;;;;;;14.52;9.23;;;28.00;59.10;;;;;;4884082;29;20486;-92
2023/06/21 10:05:17;;;;;;;12.95;8.65;;;28.00;58.10;;;;;;4868151;29;20051;-92
2023/06/21 10:07:45;;;;;;;12.95;8.93;;;27.90;57.80;;;;;;4868166;29;20474;-92
2023/06/21 10:10:13;;;;;;;13.37;8.93;;;27.90;56.30;;;;;;4867957;29;20044;-92
2023/06/21 10:12:53;;;;;;;12.88;9.13;;;28.00;56.10;;;;;;4868070;29;20055;-92
2023/06/21 10:15:23;;;;;;;14.18;8.70;;;28.00;56.10;;;;;;4868400;29;20047;-92
2023/06/21 10:17:52;;;;;;;12.15;8.43;;;28.00;55.50;;;;;;4883361;29;20095;-92
2023/06/21 10:20:23;;;;;;;14.02;9.52;;;28.00;59.70;;;;;;4883255;29;20056;-92
2023/06/21 10:22:52;;;;;;;14.10;9.10;;;27.90;59.10;;;;;;4867921;29;20164;-92
2023/06/21 10:25:23;;;;;;;26.33;10.43;;;27.80;60.60;;;;;;4867923;29;20056;-92
2023/06/21 10:27:54;;;;;;;17.75;10.80;;;27.70;61.50;;;;;;4867884;29;20084;-92
2023/06/21 10:30:23;;;;;;;17.67;11.02;;;27.50;63.00;;;;;;4883668;29;20529;-92
2023/06/21 10:32:54;;;;;;;17.95;11.73;;;26.90;64.40;;;;;;4867773;29;20100;-92
2023/06/21 10:35:24;;;;;;;20.03;12.50;;;26.50;65.70;;;;;;4867753;29;20376;-91
2023/06/21 10:38:06;;;;;;;18.25;12.40;;;26.30;66.30;;;;;;4883288;29;20053;-92
2023/06/21 10:40:37;;;;;;;23.23;14.40;;;26.00;67.70;;;;;;4867772;29;20052;-92
2023/06/21 10:43:04;;;;;;;21.42;13.48;;;25.90;68.30;;;;;;4867705;29;20053;-92
2023/06/21 10:45:33;;;;;;;21.15;14.43;;;25.80;69.00;;;;;;4867896;29;20087;-92
2023/06/21 10:48:01;;;;;;;22.70;13.73;;;25.80;69.70;;;;;;4867526;29;20052;-91
2023/06/21 10:50:29;;;;;;;20.30;14.68;;;25.70;71.00;;;;;;4866989;29;20052;-91
2023/06/21 10:52:58;;;;;;;21.23;14.82;;;25.70;71.70;;;;;;4867866;29;20056;-91
2023/06/21 10:55:26;;;;;;;25.52;15.07;;;25.70;72.80;;;;;;4867472;29;20052;-92
2023/06/21 10:57:55;;;;;;;23.38;15.57;;;25.70;73.00;;;;;;4883057;29;20139;-91
2023/06/21 11:00:24;;;;;;;23.73;15.97;;;25.70;73.10;;;;;;4867415;29;20057;-91
2023/06/21 11:02:52;;;;;;;26.38;16.42;;;25.70;73.60;;;;;;4867396;29;20661;-91
2023/06/21 11:05:26;;;;;;;27.02;17.77;;;25.70;74.10;;;;;;4882720;29;20151;-91
2023/06/21 11:07:54;;;;;;;28.55;18.98;;;25.80;74.30;;;;;;4867575;29;20071;-91
2023/06/21 11:10:41;;;;;;;28.17;17.42;;;25.90;74.30;;;;;;4867505;29;20048;-91
2023/06/21 11:13:09;;;;;;;24.80;17.77;;;26.00;73.50;;;;;;4867513;29;20234;-91
2023/06/21 11:15:41;;;;;;;23.30;16.35;;;26.00;74.20;;;;;;4867448;29;20044;-91
2023/06/21 11:18:10;;;;;;;23.02;16.15;;;26.10;73.30;;;;;;4867329;29;20456;-91
2023/06/21 11:20:51;;;;;;;23.70;16.27;;;26.10;73.20;;;;;;4867222;29;20143;-92
2023/06/21 11:23:23;;;;;;;23.55;15.75;;;26.20;73.50;;;;;;4870670;29;20515;-92
2023/06/21 11:26:01;;;;;;;27.33;16.83;;;26.30;74.80;;;;;;4871062;29;20167;-92
2023/06/21 11:28:33;;;;;;;26.13;17.20;;;26.30;74.30;;;;;;4870756;29;20420;-91
2023/06/21 11:31:14;;;;;;;23.25;17.33;;;26.10;73.60;;;;;;4870761;29;20055;-91
2023/06/21 11:33:49;;;;;;;23.65;16.75;;;26.00;74.90;;;;;;4870738;29;20451;-92
2023/06/21 11:36:20;;;;;;;24.52;18.02;;;26.00;73.90;;;;;;4886085;29;20045;-92
2023/06/21 11:39:05;;;;;;;26.67;17.37;;;26.10;75.00;;;;;;4870683;29;20529;-92
2023/06/21 11:41:55;;;;;;;21.42;16.40;;;26.00;73.90;;;;;;4885665;29;20056;-92
2023/06/21 11:44:27;;;;;;;23.95;16.13;;;26.10;74.90;;;;;;4870225;29;20052;-92
2023/06/21 11:47:17;;;;;;;25.13;17.55;;;26.20;74.00;;;;;;4885448;29;20052;-92
2023/06/21 11:49:51;;;;;;;21.48;16.50;;;26.50;74.40;;;;;;4870114;29;20045;-92
2023/06/21 11:52:24;;;;;;;23.57;16.00;;;26.80;73.40;;;;;;4870194;29;20055;-91
2023/06/21 11:54:51;;;;;;;21.60;15.70;;;27.10;71.60;;;;;;4885831;29;20043;-92
2023/06/21 11:57:18;;;;;;;19.10;15.50;;;27.30;71.50;;;;;;4870146;29;20044;-92
2023/06/21 11:59:46;;;;;;;18.63;13.70;;;27.30;70.70;;;;;;4885606;29;20144;-92
2023/06/21 12:02:14;;;;;;;15.10;9.63;;;27.30;70.20;;;;;;4870400;29;20522;-92
2023/06/21 12:04:42;;;;;;;12.57;6.43;;;27.50;67.80;;;;;;4870238;29;20053;-91
2023/06/21 12:07:10;;;;;;;11.50;7.03;;;27.50;64.30;;;;;;4869992;29;20063;-91
2023/06/21 12:09:48;;;;;;;12.13;6.82;;;27.50;64.60;;;;;;4869945;29;20088;-91
2023/06/21 12:12:25;;;;;;;13.30;7.00;;;27.60;64.50;;;;;;4870434;29;20051;-92
2023/06/21 12:14:56;;;;;;;13.90;7.40;;;27.70;63.10;;;;;;4869947;29;20489;-92
2023/06/21 12:17:23;;;;;;;11.97;6.27;;;27.70;64.50;;;;;;4870314;29;20061;-91
2023/06/21 12:19:50;;;;;;;17.05;8.88;;;27.80;64.20;;;;;;4885396;29;20388;-92
2023/06/21 12:22:21;;;;;;;13.70;9.25;;;27.80;65.10;;;;;;4885299;29;20048;-91
2023/06/21 12:24:52;;;;;;;14.90;10.23;;;27.60;65.20;;;;;;4869695;29;20139;-91
2023/06/21 12:27:19;;;;;;;15.57;10.60;;;27.60;66.10;;;;;;4869547;29;20068;-91
2023/06/21 12:29:49;;;;;;;15.90;10.33;;;27.70;67.80;;;;;;4870186;29;20052;-91
2023/06/21 12:32:19;;;;;;;16.90;10.75;;;27.90;67.40;;;;;;4884884;29;20048;-92
2023/06/21 12:34:48;;;;;;;16.70;10.18;;;27.90;67.20;;;;;;4869473;29;20573;-92
2023/06/21 12:37:22;;;;;;;14.63;8.93;;;28.10;65.10;;;;;;4870235;29;20516;-92
2023/06/21 12:39:52;;;;;;;14.75;9.38;;;28.20;63.50;;;;;;4869628;29;20052;-92
2023/06/21 12:42:20;;;;;;;13.37;8.50;;;28.00;64.10;;;;;;4869291;29;20063;-92
2023/06/21 12:44:47;;;;;;;12.88;8.07;;;28.20;63.90;;;;;;4869357;29;20059;-92
2023/06/21 12:47:15;;;;;;;14.35;8.20;;;28.20;62.30;;;;;;4884530;29;20086;-91